sensor_id;sensor_type;location;lat;lon;timestamp;P1;durP1;ratioP1;P2;durP2;ratioP2
69629;SDS011;56857;52.212;5.496;2023-06-22T00:02:10;11.73;;;5.63;;
69629;SDS011;56857;52.212;5.496;2023-06-22T00:04:35;11.77;;;6.07;;
69629;SDS011;56857;52.212;5.496;2023-06-22T00:07:00;11.40;;;5.63;;
69629;SDS011;56857;52.212;5.496;2023-06-22T00:09:26;10.60;;;5.85;;
69629;SDS011;56857;52.212;5.496;2023-06-22T00:11:51;10.37;;;6.10;;
69629;SDS011;56857;52.212;5.496;2023-06-22T00:14:16;9.60;;;5.35;;
69629;SDS011;56857;52.212;5.496;2023-06-22T00:16:42;9.38;;;5.90;;
69629;SDS011;56857;52.212;5.496;2023-06-22T00:19:07;9.10;;;5.90;;
69629;SDS011;56857;52.212;5.496;2023-06-22T00:21:32;10.13;;;5.88;;
69629;SDS011;56857;52.212;5.496;2023-06-22T00:23:58;9.18;;;6.00;;
69629;SDS011;56857;52.212;5.496;2023-06-22T00:26:23;10.13;;;6.10;;
69629;SDS011;56857;52.212;5.496;2023-06-22T00:28:48;11.18;;;6.40;;
69629;SDS011;56857;52.212;5.496;2023-06-22T00:31:14;10.37;;;5.87;;
69629;SDS011;56857;52.212;5.496;2023-06-22T00:33:39;11.27;;;6.72;;
69629;SDS011;56857;52.212;5.496;2023-06-22T00:36:05;10.82;;;6.57;;
69629;SDS011;56857;52.212;5.496;2023-06-22T00:38:31;11.00;;;7.07;;
69629;SDS011;56857;52.212;5.496;2023-06-22T00:40:56;11.07;;;6.88;;
69629;SDS011;56857;52.212;5.496;2023-06-22T00:43:21;11.90;;;6.13;;
69629;SDS011;56857;52.212;5.496;2023-06-22T00:45:46;11.18;;;6.57;;
69629;SDS011;56857;52.212;5.496;2023-06-22T00:48:12;10.48;;;7.13;;
69629;SDS011;56857;52.212;5.496;2023-06-22T00:50:39;10.68;;;6.10;;
69629;SDS011;56857;52.212;5.496;2023-06-22T00:53:06;10.90;;;6.60;;
69629;SDS011;56857;52.212;5.496;2023-06-22T00:55:32;10.70;;;6.20;;
69629;SDS011;56857;52.212;5.496;2023-06-22T00:57:58;11.57;;;6.88;;
69629;SDS011;56857;52.212;5.496;2023-06-22T01:00:23;13.25;;;7.10;;
69629;SDS011;56857;52.212;5.496;2023-06-22T01:02:50;13.55;;;6.68;;
69629;SDS011;56857;52.212;5.496;2023-06-22T01:05:17;10.52;;;5.97;;
69629;SDS011;56857;52.212;5.496;2023-06-22T01:11:32;13.32;;;6.82;;
69629;SDS011;56857;52.212;5.496;2023-06-22T01:13:48;10.20;;;6.88;;
69629;SDS011;56857;52.212;5.496;2023-06-22T01:16:24;12.10;;;7.05;;
69629;SDS011;56857;52.212;5.496;2023-06-22T01:18:52;11.95;;;6.57;;
69629;SDS011;56857;52.212;5.496;2023-06-22T01:21:21;11.65;;;7.03;;
69629;SDS011;56857;52.212;5.496;2023-06-22T01:26:38;11.55;;;5.90;;
69629;SDS011;56857;52.212;5.496;2023-06-22T01:29:17;11.10;;;6.22;;
69629;SDS011;56857;52.212;5.496;2023-06-22T01:31:45;10.32;;;6.57;;
69629;SDS011;56857;52.212;5.496;2023-06-22T01:34:13;12.38;;;6.75;;
69629;SDS011;56857;52.212;5.496;2023-06-22T01:36:39;10.70;;;6.82;;
69629;SDS011;56857;52.212;5.496;2023-06-22T01:39:06;13.98;;;8.10;;
69629;SDS011;56857;52.212;5.496;2023-06-22T01:41:35;11.93;;;7.93;;
69629;SDS011;56857;52.212;5.496;2023-06-22T01:44:05;12.23;;;7.78;;
69629;SDS011;56857;52.212;5.496;2023-06-22T01:46:32;11.38;;;8.20;;
69629;SDS011;56857;52.212;5.496;2023-06-22T01:48:59;12.25;;;8.23;;
69629;SDS011;56857;52.212;5.496;2023-06-22T01:51:24;13.68;;;7.75;;
69629;SDS011;56857;52.212;5.496;2023-06-22T01:53:50;11.70;;;7.28;;
69629;SDS011;56857;52.212;5.496;2023-06-22T01:56:16;13.88;;;8.13;;
69629;SDS011;56857;52.212;5.496;2023-06-22T01:58:45;12.15;;;8.68;;
69629;SDS011;56857;52.212;5.496;2023-06-22T02:01:16;10.77;;;7.45;;
69629;SDS011;56857;52.212;5.496;2023-06-22T02:04:06;14.50;;;8.45;;
69629;SDS011;56857;52.212;5.496;2023-06-22T02:06:37;13.57;;;7.75;;
69629;SDS011;56857;52.212;5.496;2023-06-22T02:09:12;13.52;;;7.95;;
69629;SDS011;56857;52.212;5.496;2023-06-22T02:11:40;12.60;;;7.80;;
69629;SDS011;56857;52.212;5.496;2023-06-22T02:14:07;13.38;;;8.50;;
69629;SDS011;56857;52.212;5.496;2023-06-22T02:16:33;12.82;;;7.90;;
69629;SDS011;56857;52.212;5.496;2023-06-22T02:19:01;13.20;;;8.00;;
69629;SDS011;56857;52.212;5.496;2023-06-22T02:21:27;11.15;;;7.32;;
69629;SDS011;56857;52.212;5.496;2023-06-22T02:23:52;14.35;;;7.82;;
69629;SDS011;56857;52.212;5.496;2023-06-22T02:26:18;12.38;;;7.85;;
69629;SDS011;56857;52.212;5.496;2023-06-22T02:28:43;11.88;;;7.28;;
69629;SDS011;56857;52.212;5.496;2023-06-22T02:31:09;14.45;;;8.10;;
69629;SDS011;56857;52.212;5.496;2023-06-22T02:33:35;13.57;;;8.27;;
69629;SDS011;56857;52.212;5.496;2023-06-22T02:36:00;12.60;;;8.30;;
69629;SDS011;56857;52.212;5.496;2023-06-22T02:38:26;13.05;;;8.25;;
69629;SDS011;56857;52.212;5.496;2023-06-22T02:40:51;14.60;;;9.13;;
69629;SDS011;56857;52.212;5.496;2023-06-22T02:43:16;11.40;;;7.57;;
69629;SDS011;56857;52.212;5.496;2023-06-22T02:45:42;13.30;;;8.77;;
69629;SDS011;56857;52.212;5.496;2023-06-22T02:48:07;13.80;;;8.23;;
69629;SDS011;56857;52.212;5.496;2023-06-22T02:50:32;13.68;;;8.90;;
69629;SDS011;56857;52.212;5.496;2023-06-22T02:52:59;12.35;;;8.10;;
69629;SDS011;56857;52.212;5.496;2023-06-22T02:55:24;13.75;;;7.57;;
69629;SDS011;56857;52.212;5.496;2023-06-22T02:57:50;12.40;;;7.95;;
69629;SDS011;56857;52.212;5.496;2023-06-22T03:00:15;11.40;;;7.97;;
69629;SDS011;56857;52.212;5.496;2023-06-22T03:02:40;11.50;;;7.70;;
69629;SDS011;56857;52.212;5.496;2023-06-22T03:05:05;12.93;;;7.72;;
69629;SDS011;56857;52.212;5.496;2023-06-22T03:07:31;16.60;;;7.85;;
69629;SDS011;56857;52.212;5.496;2023-06-22T03:09:56;11.98;;;8.20;;
69629;SDS011;56857;52.212;5.496;2023-06-22T03:12:22;15.00;;;7.97;;
69629;SDS011;56857;52.212;5.496;2023-06-22T03:14:47;13.15;;;8.55;;
69629;SDS011;56857;52.212;5.496;2023-06-22T03:17:13;12.15;;;7.35;;
69629;SDS011;56857;52.212;5.496;2023-06-22T03:19:38;13.25;;;8.20;;
69629;SDS011;56857;52.212;5.496;2023-06-22T03:22:04;12.50;;;8.33;;
69629;SDS011;56857;52.212;5.496;2023-06-22T03:24:29;12.95;;;7.47;;
69629;SDS011;56857;52.212;5.496;2023-06-22T03:26:55;12.90;;;8.18;;
69629;SDS011;56857;52.212;5.496;2023-06-22T03:29:20;10.13;;;6.78;;
69629;SDS011;56857;52.212;5.496;2023-06-22T03:31:45;12.47;;;7.63;;
69629;SDS011;56857;52.212;5.496;2023-06-22T03:34:11;12.70;;;8.38;;
69629;SDS011;56857;52.212;5.496;2023-06-22T03:36:36;14.35;;;8.27;;
69629;SDS011;56857;52.212;5.496;2023-06-22T03:39:01;13.48;;;8.45;;
69629;SDS011;56857;52.212;5.496;2023-06-22T03:41:27;14.63;;;9.05;;
69629;SDS011;56857;52.212;5.496;2023-06-22T03:43:52;14.32;;;8.40;;
69629;SDS011;56857;52.212;5.496;2023-06-22T03:46:17;12.50;;;8.47;;
69629;SDS011;56857;52.212;5.496;2023-06-22T03:48:42;12.93;;;8.07;;
69629;SDS011;56857;52.212;5.496;2023-06-22T03:51:08;14.85;;;8.13;;
69629;SDS011;56857;52.212;5.496;2023-06-22T03:53:33;13.35;;;7.93;;
69629;SDS011;56857;52.212;5.496;2023-06-22T03:55:59;14.13;;;9.47;;
69629;SDS011;56857;52.212;5.496;2023-06-22T03:58:24;14.90;;;8.55;;
69629;SDS011;56857;52.212;5.496;2023-06-22T04:00:50;14.32;;;8.88;;
69629;SDS011;56857;52.212;5.496;2023-06-22T04:03:17;15.10;;;8.88;;
69629;SDS011;56857;52.212;5.496;2023-06-22T04:05:43;15.98;;;9.68;;
69629;SDS011;56857;52.212;5.496;2023-06-22T04:08:08;15.15;;;9.68;;
69629;SDS011;56857;52.212;5.496;2023-06-22T04:10:34;16.07;;;9.50;;
69629;SDS011;56857;52.212;5.496;2023-06-22T04:12:59;16.27;;;9.43;;
69629;SDS011;56857;52.212;5.496;2023-06-22T04:15:25;16.10;;;9.95;;
69629;SDS011;56857;52.212;5.496;2023-06-22T04:17:50;17.00;;;11.02;;
69629;SDS011;56857;52.212;5.496;2023-06-22T04:20:15;15.88;;;10.68;;
69629;SDS011;56857;52.212;5.496;2023-06-22T04:22:41;17.27;;;10.05;;
69629;SDS011;56857;52.212;5.496;2023-06-22T04:25:06;19.02;;;10.90;;
69629;SDS011;56857;52.212;5.496;2023-06-22T04:27:32;16.05;;;10.88;;
69629;SDS011;56857;52.212;5.496;2023-06-22T04:29:57;16.13;;;10.70;;
69629;SDS011;56857;52.212;5.496;2023-06-22T04:32:22;16.38;;;10.00;;
69629;SDS011;56857;52.212;5.496;2023-06-22T04:34:47;19.27;;;12.30;;
69629;SDS011;56857;52.212;5.496;2023-06-22T04:37:13;19.38;;;11.45;;
69629;SDS011;56857;52.212;5.496;2023-06-22T04:39:38;18.55;;;11.45;;
69629;SDS011;56857;52.212;5.496;2023-06-22T04:42:04;19.75;;;13.00;;
69629;SDS011;56857;52.212;5.496;2023-06-22T04:44:29;21.77;;;13.15;;
69629;SDS011;56857;52.212;5.496;2023-06-22T04:46:56;23.70;;;14.25;;
69629;SDS011;56857;52.212;5.496;2023-06-22T04:49:22;20.75;;;13.02;;
69629;SDS011;56857;52.212;5.496;2023-06-22T04:51:49;21.83;;;14.57;;
69629;SDS011;56857;52.212;5.496;2023-06-22T04:54:14;22.30;;;13.20;;
69629;SDS011;56857;52.212;5.496;2023-06-22T04:56:39;24.40;;;14.27;;
69629;SDS011;56857;52.212;5.496;2023-06-22T04:59:05;26.77;;;14.93;;
69629;SDS011;56857;52.212;5.496;2023-06-22T05:01:30;26.75;;;15.65;;
69629;SDS011;56857;52.212;5.496;2023-06-22T05:03:55;24.37;;;16.13;;
69629;SDS011;56857;52.212;5.496;2023-06-22T05:06:24;25.58;;;16.38;;
69629;SDS011;56857;52.212;5.496;2023-06-22T05:08:49;27.15;;;17.10;;
69629;SDS011;56857;52.212;5.496;2023-06-22T05:11:14;30.50;;;17.58;;
69629;SDS011;56857;52.212;5.496;2023-06-22T05:13:40;28.75;;;18.63;;
69629;SDS011;56857;52.212;5.496;2023-06-22T05:16:05;29.67;;;19.40;;
69629;SDS011;56857;52.212;5.496;2023-06-22T05:18:30;29.38;;;18.10;;
69629;SDS011;56857;52.212;5.496;2023-06-22T05:20:57;28.83;;;19.08;;
69629;SDS011;56857;52.212;5.496;2023-06-22T05:23:23;33.53;;;19.65;;
69629;SDS011;56857;52.212;5.496;2023-06-22T05:25:48;28.35;;;19.10;;
69629;SDS011;56857;52.212;5.496;2023-06-22T05:28:14;28.83;;;19.55;;
69629;SDS011;56857;52.212;5.496;2023-06-22T05:30:39;31.88;;;20.58;;
69629;SDS011;56857;52.212;5.496;2023-06-22T05:33:04;30.08;;;20.45;;
69629;SDS011;56857;52.212;5.496;2023-06-22T05:35:30;33.67;;;21.50;;
69629;SDS011;56857;52.212;5.496;2023-06-22T05:37:55;32.83;;;21.27;;
69629;SDS011;56857;52.212;5.496;2023-06-22T05:40:21;35.63;;;22.38;;
69629;SDS011;56857;52.212;5.496;2023-06-22T05:42:46;32.55;;;20.85;;
69629;SDS011;56857;52.212;5.496;2023-06-22T05:45:11;36.00;;;23.55;;
69629;SDS011;56857;52.212;5.496;2023-06-22T05:47:36;37.13;;;23.08;;
69629;SDS011;56857;52.212;5.496;2023-06-22T05:50:02;36.00;;;22.60;;
69629;SDS011;56857;52.212;5.496;2023-06-22T05:52:28;37.95;;;24.20;;
69629;SDS011;56857;52.212;5.496;2023-06-22T05:54:54;36.25;;;23.30;;
69629;SDS011;56857;52.212;5.496;2023-06-22T05:57:19;33.50;;;21.27;;
69629;SDS011;56857;52.212;5.496;2023-06-22T05:59:44;34.30;;;21.77;;
69629;SDS011;56857;52.212;5.496;2023-06-22T06:02:10;36.10;;;23.58;;
69629;SDS011;56857;52.212;5.496;2023-06-22T06:04:35;37.05;;;24.92;;
69629;SDS011;56857;52.212;5.496;2023-06-22T06:07:00;34.47;;;23.52;;
69629;SDS011;56857;52.212;5.496;2023-06-22T06:09:26;37.25;;;23.60;;
69629;SDS011;56857;52.212;5.496;2023-06-22T06:11:51;35.45;;;23.80;;
69629;SDS011;56857;52.212;5.496;2023-06-22T06:14:16;34.35;;;22.75;;
69629;SDS011;56857;52.212;5.496;2023-06-22T06:16:41;33.38;;;22.88;;
69629;SDS011;56857;52.212;5.496;2023-06-22T06:19:07;36.63;;;24.05;;
69629;SDS011;56857;52.212;5.496;2023-06-22T06:21:32;34.70;;;24.60;;
69629;SDS011;56857;52.212;5.496;2023-06-22T06:23:57;37.38;;;23.40;;
69629;SDS011;56857;52.212;5.496;2023-06-22T06:26:23;36.72;;;23.80;;
69629;SDS011;56857;52.212;5.496;2023-06-22T06:28:48;36.53;;;23.65;;
69629;SDS011;56857;52.212;5.496;2023-06-22T06:31:13;36.97;;;24.27;;
69629;SDS011;56857;52.212;5.496;2023-06-22T06:33:39;37.33;;;24.02;;
69629;SDS011;56857;52.212;5.496;2023-06-22T06:36:04;35.80;;;24.30;;
69629;SDS011;56857;52.212;5.496;2023-06-22T06:38:30;38.28;;;24.63;;
69629;SDS011;56857;52.212;5.496;2023-06-22T06:40:56;36.60;;;24.08;;
69629;SDS011;56857;52.212;5.496;2023-06-22T06:43:22;33.10;;;23.23;;
69629;SDS011;56857;52.212;5.496;2023-06-22T06:45:47;34.55;;;22.50;;
69629;SDS011;56857;52.212;5.496;2023-06-22T06:48:12;32.95;;;22.60;;
69629;SDS011;56857;52.212;5.496;2023-06-22T06:50:38;35.17;;;22.77;;
69629;SDS011;56857;52.212;5.496;2023-06-22T06:53:03;36.80;;;22.67;;
69629;SDS011;56857;52.212;5.496;2023-06-22T06:55:28;30.50;;;21.30;;
69629;SDS011;56857;52.212;5.496;2023-06-22T06:57:53;30.88;;;21.17;;
69629;SDS011;56857;52.212;5.496;2023-06-22T07:00:19;31.17;;;20.97;;
69629;SDS011;56857;52.212;5.496;2023-06-22T07:02:45;27.38;;;20.73;;
69629;SDS011;56857;52.212;5.496;2023-06-22T07:05:11;28.83;;;19.67;;
69629;SDS011;56857;52.212;5.496;2023-06-22T07:07:37;29.65;;;19.70;;
69629;SDS011;56857;52.212;5.496;2023-06-22T07:10:04;25.80;;;17.52;;
69629;SDS011;56857;52.212;5.496;2023-06-22T07:12:32;23.45;;;17.67;;
69629;SDS011;56857;52.212;5.496;2023-06-22T07:15:15;24.60;;;16.00;;
69629;SDS011;56857;52.212;5.496;2023-06-22T07:17:41;19.77;;;14.68;;
69629;SDS011;56857;52.212;5.496;2023-06-22T07:20:06;22.53;;;16.30;;
69629;SDS011;56857;52.212;5.496;2023-06-22T07:22:32;21.92;;;14.73;;
69629;SDS011;56857;52.212;5.496;2023-06-22T07:24:58;20.88;;;13.40;;
69629;SDS011;56857;52.212;5.496;2023-06-22T07:27:23;22.50;;;14.45;;
69629;SDS011;56857;52.212;5.496;2023-06-22T07:29:48;20.87;;;13.43;;
69629;SDS011;56857;52.212;5.496;2023-06-22T07:32:14;19.27;;;13.00;;
69629;SDS011;56857;52.212;5.496;2023-06-22T07:34:39;18.45;;;12.50;;
69629;SDS011;56857;52.212;5.496;2023-06-22T07:37:04;21.05;;;12.50;;
69629;SDS011;56857;52.212;5.496;2023-06-22T07:39:30;22.73;;;13.10;;
69629;SDS011;56857;52.212;5.496;2023-06-22T07:41:55;20.02;;;12.93;;
69629;SDS011;56857;52.212;5.496;2023-06-22T07:44:20;18.98;;;13.70;;
69629;SDS011;56857;52.212;5.496;2023-06-22T07:46:46;17.42;;;12.07;;
69629;SDS011;56857;52.212;5.496;2023-06-22T07:49:11;21.17;;;12.50;;
69629;SDS011;56857;52.212;5.496;2023-06-22T07:51:37;18.90;;;13.13;;
69629;SDS011;56857;52.212;5.496;2023-06-22T07:54:02;17.20;;;10.85;;
69629;SDS011;56857;52.212;5.496;2023-06-22T07:56:27;18.83;;;11.83;;
69629;SDS011;56857;52.212;5.496;2023-06-22T07:58:53;17.73;;;11.23;;
69629;SDS011;56857;52.212;5.496;2023-06-22T08:01:18;17.33;;;11.23;;
69629;SDS011;56857;52.212;5.496;2023-06-22T08:03:44;16.90;;;10.95;;
69629;SDS011;56857;52.212;5.496;2023-06-22T08:06:09;16.02;;;10.23;;
69629;SDS011;56857;52.212;5.496;2023-06-22T08:08:37;14.18;;;10.45;;
69629;SDS011;56857;52.212;5.496;2023-06-22T08:11:03;17.92;;;11.38;;
69629;SDS011;56857;52.212;5.496;2023-06-22T08:13:28;14.68;;;10.63;;
69629;SDS011;56857;52.212;5.496;2023-06-22T08:15:53;16.67;;;10.07;;
69629;SDS011;56857;52.212;5.496;2023-06-22T08:18:18;14.82;;;10.48;;
69629;SDS011;56857;52.212;5.496;2023-06-22T08:20:44;16.15;;;10.55;;
69629;SDS011;56857;52.212;5.496;2023-06-22T08:23:09;15.00;;;10.07;;
69629;SDS011;56857;52.212;5.496;2023-06-22T08:25:35;16.05;;;9.65;;
69629;SDS011;56857;52.212;5.496;2023-06-22T08:28:03;15.23;;;10.45;;
69629;SDS011;56857;52.212;5.496;2023-06-22T08:30:29;15.55;;;9.18;;
69629;SDS011;56857;52.212;5.496;2023-06-22T08:32:55;16.13;;;10.88;;
69629;SDS011;56857;52.212;5.496;2023-06-22T08:35:23;12.77;;;9.68;;
69629;SDS011;56857;52.212;5.496;2023-06-22T08:37:48;11.38;;;7.43;;
69629;SDS011;56857;52.212;5.496;2023-06-22T08:40:14;14.48;;;7.85;;
69629;SDS011;56857;52.212;5.496;2023-06-22T08:42:42;12.27;;;7.40;;
69629;SDS011;56857;52.212;5.496;2023-06-22T08:45:07;10.98;;;6.60;;
69629;SDS011;56857;52.212;5.496;2023-06-22T08:47:33;13.57;;;7.35;;
69629;SDS011;56857;52.212;5.496;2023-06-22T08:49:59;10.53;;;6.53;;
69629;SDS011;56857;52.212;5.496;2023-06-22T08:52:24;13.25;;;8.65;;
69629;SDS011;56857;52.212;5.496;2023-06-22T08:54:49;13.63;;;7.35;;
69629;SDS011;56857;52.212;5.496;2023-06-22T08:57:15;11.48;;;6.55;;
69629;SDS011;56857;52.212;5.496;2023-06-22T08:59:41;13.15;;;6.80;;
69629;SDS011;56857;52.212;5.496;2023-06-22T09:02:06;9.90;;;6.55;;
69629;SDS011;56857;52.212;5.496;2023-06-22T09:04:32;11.25;;;6.18;;
69629;SDS011;56857;52.212;5.496;2023-06-22T09:06:57;11.43;;;5.85;;
69629;SDS011;56857;52.212;5.496;2023-06-22T09:09:22;11.45;;;5.43;;
69629;SDS011;56857;52.212;5.496;2023-06-22T09:11:48;11.15;;;5.93;;
69629;SDS011;56857;52.212;5.496;2023-06-22T09:14:13;10.93;;;6.20;;
69629;SDS011;56857;52.212;5.496;2023-06-22T09:16:38;8.75;;;4.88;;
69629;SDS011;56857;52.212;5.496;2023-06-22T09:19:04;7.60;;;4.35;;
69629;SDS011;56857;52.212;5.496;2023-06-22T09:21:29;7.78;;;4.15;;
69629;SDS011;56857;52.212;5.496;2023-06-22T09:23:54;8.80;;;5.05;;
69629;SDS011;56857;52.212;5.496;2023-06-22T09:26:20;8.60;;;4.30;;
69629;SDS011;56857;52.212;5.496;2023-06-22T09:28:46;10.93;;;5.53;;
69629;SDS011;56857;52.212;5.496;2023-06-22T09:31:11;8.25;;;5.00;;
69629;SDS011;56857;52.212;5.496;2023-06-22T09:33:37;8.13;;;3.78;;
69629;SDS011;56857;52.212;5.496;2023-06-22T09:36:02;8.40;;;3.78;;
69629;SDS011;56857;52.212;5.496;2023-06-22T09:38:27;9.43;;;4.75;;
69629;SDS011;56857;52.212;5.496;2023-06-22T09:40:53;9.97;;;4.73;;
69629;SDS011;56857;52.212;5.496;2023-06-22T09:43:18;8.48;;;5.25;;
69629;SDS011;56857;52.212;5.496;2023-06-22T09:45:44;9.60;;;5.20;;
69629;SDS011;56857;52.212;5.496;2023-06-22T09:48:09;9.40;;;5.25;;
69629;SDS011;56857;52.212;5.496;2023-06-22T09:50:34;8.33;;;4.40;;
69629;SDS011;56857;52.212;5.496;2023-06-22T09:52:59;8.13;;;4.85;;
69629;SDS011;56857;52.212;5.496;2023-06-22T09:55:25;7.73;;;3.83;;
69629;SDS011;56857;52.212;5.496;2023-06-22T09:57:50;7.40;;;4.38;;
69629;SDS011;56857;52.212;5.496;2023-06-22T10:00:16;8.13;;;4.67;;
69629;SDS011;56857;52.212;5.496;2023-06-22T10:02:43;8.40;;;4.90;;
69629;SDS011;56857;52.212;5.496;2023-06-22T10:05:08;9.95;;;4.80;;
69629;SDS011;56857;52.212;5.496;2023-06-22T10:07:34;8.98;;;4.68;;
69629;SDS011;56857;52.212;5.496;2023-06-22T10:09:59;10.02;;;4.15;;
69629;SDS011;56857;52.212;5.496;2023-06-22T10:12:27;8.23;;;4.32;;
69629;SDS011;56857;52.212;5.496;2023-06-22T10:14:52;7.85;;;3.78;;
69629;SDS011;56857;52.212;5.496;2023-06-22T10:17:18;8.52;;;4.97;;
69629;SDS011;56857;52.212;5.496;2023-06-22T10:19:43;8.02;;;4.20;;
69629;SDS011;56857;52.212;5.496;2023-06-22T10:22:08;8.32;;;4.28;;
69629;SDS011;56857;52.212;5.496;2023-06-22T10:24:34;8.15;;;4.35;;
69629;SDS011;56857;52.212;5.496;2023-06-22T10:26:59;12.07;;;8.20;;
69629;SDS011;56857;52.212;5.496;2023-06-22T10:29:24;13.93;;;8.20;;
69629;SDS011;56857;52.212;5.496;2023-06-22T10:31:50;13.70;;;6.85;;
69629;SDS011;56857;52.212;5.496;2023-06-22T10:34:15;11.18;;;5.63;;
69629;SDS011;56857;52.212;5.496;2023-06-22T10:36:40;10.82;;;7.00;;
69629;SDS011;56857;52.212;5.496;2023-06-22T10:39:06;13.63;;;9.43;;
69629;SDS011;56857;52.212;5.496;2023-06-22T10:41:31;16.75;;;8.93;;
69629;SDS011;56857;52.212;5.496;2023-06-22T10:43:56;13.90;;;9.63;;
69629;SDS011;56857;52.212;5.496;2023-06-22T10:46:23;15.07;;;9.57;;
69629;SDS011;56857;52.212;5.496;2023-06-22T10:48:49;15.88;;;10.70;;
69629;SDS011;56857;52.212;5.496;2023-06-22T10:51:15;15.13;;;10.55;;
69629;SDS011;56857;52.212;5.496;2023-06-22T10:53:40;16.98;;;11.82;;
69629;SDS011;56857;52.212;5.496;2023-06-22T10:56:05;18.07;;;12.17;;
69629;SDS011;56857;52.212;5.496;2023-06-22T10:58:30;18.63;;;11.82;;
69629;SDS011;56857;52.212;5.496;2023-06-22T11:00:56;16.90;;;11.23;;
69629;SDS011;56857;52.212;5.496;2023-06-22T11:03:21;16.50;;;10.43;;
69629;SDS011;56857;52.212;5.496;2023-06-22T11:05:47;13.73;;;8.80;;
69629;SDS011;56857;52.212;5.496;2023-06-22T11:08:12;13.13;;;8.13;;
69629;SDS011;56857;52.212;5.496;2023-06-22T11:10:37;14.05;;;10.40;;
69629;SDS011;56857;52.212;5.496;2023-06-22T11:13:03;16.55;;;9.80;;
69629;SDS011;56857;52.212;5.496;2023-06-22T11:15:28;17.13;;;10.80;;
69629;SDS011;56857;52.212;5.496;2023-06-22T11:17:53;16.05;;;9.98;;
69629;SDS011;56857;52.212;5.496;2023-06-22T11:20:19;14.98;;;11.13;;
69629;SDS011;56857;52.212;5.496;2023-06-22T11:22:44;16.67;;;10.95;;
69629;SDS011;56857;52.212;5.496;2023-06-22T11:25:09;17.10;;;11.50;;
69629;SDS011;56857;52.212;5.496;2023-06-22T11:27:35;17.65;;;12.93;;
69629;SDS011;56857;52.212;5.496;2023-06-22T11:30:00;15.98;;;10.88;;
69629;SDS011;56857;52.212;5.496;2023-06-22T11:32:26;14.55;;;9.82;;
69629;SDS011;56857;52.212;5.496;2023-06-22T11:34:51;16.15;;;11.15;;
69629;SDS011;56857;52.212;5.496;2023-06-22T11:37:16;15.07;;;10.65;;
69629;SDS011;56857;52.212;5.496;2023-06-22T11:39:42;18.13;;;11.02;;
69629;SDS011;56857;52.212;5.496;2023-06-22T11:42:08;17.13;;;9.75;;
69629;SDS011;56857;52.212;5.496;2023-06-22T11:44:34;16.80;;;10.32;;
69629;SDS011;56857;52.212;5.496;2023-06-22T11:47:00;18.88;;;12.20;;
69629;SDS011;56857;52.212;5.496;2023-06-22T11:49:25;15.05;;;10.25;;
69629;SDS011;56857;52.212;5.496;2023-06-22T11:51:51;13.97;;;9.70;;
69629;SDS011;56857;52.212;5.496;2023-06-22T11:54:16;14.65;;;9.18;;
69629;SDS011;56857;52.212;5.496;2023-06-22T11:56:41;16.07;;;9.90;;
69629;SDS011;56857;52.212;5.496;2023-06-22T11:59:06;15.20;;;9.35;;
69629;SDS011;56857;52.212;5.496;2023-06-22T12:01:32;15.93;;;10.43;;
69629;SDS011;56857;52.212;5.496;2023-06-22T12:03:57;15.02;;;9.10;;
69629;SDS011;56857;52.212;5.496;2023-06-22T12:06:22;15.13;;;10.90;;
69629;SDS011;56857;52.212;5.496;2023-06-22T12:08:48;18.02;;;10.55;;
69629;SDS011;56857;52.212;5.496;2023-06-22T12:11:13;14.43;;;10.00;;
69629;SDS011;56857;52.212;5.496;2023-06-22T12:13:38;17.55;;;10.18;;
69629;SDS011;56857;52.212;5.496;2023-06-22T12:16:04;15.10;;;9.77;;
69629;SDS011;56857;52.212;5.496;2023-06-22T12:18:29;16.80;;;10.93;;
69629;SDS011;56857;52.212;5.496;2023-06-22T12:20:55;14.17;;;9.27;;
69629;SDS011;56857;52.212;5.496;2023-06-22T12:23:20;15.25;;;9.30;;
69629;SDS011;56857;52.212;5.496;2023-06-22T12:25:45;16.05;;;10.52;;
69629;SDS011;56857;52.212;5.496;2023-06-22T12:28:11;14.07;;;10.02;;
69629;SDS011;56857;52.212;5.496;2023-06-22T12:30:36;12.68;;;8.93;;
69629;SDS011;56857;52.212;5.496;2023-06-22T12:33:01;14.77;;;9.77;;
69629;SDS011;56857;52.212;5.496;2023-06-22T12:35:26;13.65;;;9.38;;
69629;SDS011;56857;52.212;5.496;2023-06-22T12:37:52;12.88;;;8.65;;
69629;SDS011;56857;52.212;5.496;2023-06-22T12:40:17;12.95;;;8.25;;
69629;SDS011;56857;52.212;5.496;2023-06-22T12:42:44;13.93;;;9.35;;
69629;SDS011;56857;52.212;5.496;2023-06-22T12:45:10;12.65;;;8.43;;
69629;SDS011;56857;52.212;5.496;2023-06-22T12:47:35;13.95;;;9.20;;
69629;SDS011;56857;52.212;5.496;2023-06-22T12:50:00;15.15;;;8.52;;
69629;SDS011;56857;52.212;5.496;2023-06-22T12:52:26;13.07;;;8.80;;
69629;SDS011;56857;52.212;5.496;2023-06-22T12:54:51;14.57;;;9.23;;
69629;SDS011;56857;52.212;5.496;2023-06-22T12:57:16;14.70;;;9.00;;
69629;SDS011;56857;52.212;5.496;2023-06-22T12:59:42;16.05;;;9.55;;
69629;SDS011;56857;52.212;5.496;2023-06-22T13:02:08;14.67;;;9.77;;
69629;SDS011;56857;52.212;5.496;2023-06-22T13:04:33;15.60;;;10.07;;
69629;SDS011;56857;52.212;5.496;2023-06-22T13:06:59;15.10;;;8.63;;
69629;SDS011;56857;52.212;5.496;2023-06-22T13:09:24;13.80;;;9.40;;
69629;SDS011;56857;52.212;5.496;2023-06-22T13:11:49;12.70;;;8.45;;
69629;SDS011;56857;52.212;5.496;2023-06-22T13:14:14;14.30;;;8.15;;
69629;SDS011;56857;52.212;5.496;2023-06-22T13:16:40;13.05;;;7.78;;
69629;SDS011;56857;52.212;5.496;2023-06-22T13:19:05;14.90;;;8.40;;
69629;SDS011;56857;52.212;5.496;2023-06-22T13:21:30;12.63;;;8.02;;
69629;SDS011;56857;52.212;5.496;2023-06-22T13:23:56;11.77;;;7.93;;
69629;SDS011;56857;52.212;5.496;2023-06-22T13:26:21;12.52;;;9.32;;
69629;SDS011;56857;52.212;5.496;2023-06-22T13:28:46;14.73;;;8.32;;
69629;SDS011;56857;52.212;5.496;2023-06-22T13:31:11;12.88;;;8.55;;
69629;SDS011;56857;52.212;5.496;2023-06-22T13:33:37;14.60;;;9.60;;
69629;SDS011;56857;52.212;5.496;2023-06-22T13:36:03;13.57;;;8.63;;
69629;SDS011;56857;52.212;5.496;2023-06-22T13:38:28;16.23;;;9.18;;
69629;SDS011;56857;52.212;5.496;2023-06-22T13:40:54;14.20;;;9.13;;
69629;SDS011;56857;52.212;5.496;2023-06-22T13:43:19;14.30;;;8.83;;
69629;SDS011;56857;52.212;5.496;2023-06-22T13:45:44;13.00;;;9.18;;
69629;SDS011;56857;52.212;5.496;2023-06-22T13:48:10;13.70;;;8.23;;
69629;SDS011;56857;52.212;5.496;2023-06-22T13:50:35;13.07;;;9.75;;
69629;SDS011;56857;52.212;5.496;2023-06-22T13:53:01;15.00;;;9.60;;
69629;SDS011;56857;52.212;5.496;2023-06-22T13:55:26;14.77;;;9.63;;
69629;SDS011;56857;52.212;5.496;2023-06-22T13:57:51;14.27;;;9.20;;
69629;SDS011;56857;52.212;5.496;2023-06-22T14:00:17;14.68;;;10.77;;
69629;SDS011;56857;52.212;5.496;2023-06-22T14:02:43;14.52;;;9.68;;
69629;SDS011;56857;52.212;5.496;2023-06-22T14:05:08;14.40;;;9.75;;
69629;SDS011;56857;52.212;5.496;2023-06-22T14:07:34;13.50;;;9.05;;
69629;SDS011;56857;52.212;5.496;2023-06-22T14:09:59;14.38;;;11.20;;
69629;SDS011;56857;52.212;5.496;2023-06-22T14:12:25;17.08;;;10.00;;
69629;SDS011;56857;52.212;5.496;2023-06-22T14:14:51;17.75;;;10.77;;
69629;SDS011;56857;52.212;5.496;2023-06-22T14:17:16;16.27;;;12.18;;
69629;SDS011;56857;52.212;5.496;2023-06-22T14:19:42;13.35;;;9.32;;
69629;SDS011;56857;52.212;5.496;2023-06-22T14:22:07;16.92;;;10.88;;
69629;SDS011;56857;52.212;5.496;2023-06-22T14:24:32;15.63;;;10.90;;
69629;SDS011;56857;52.212;5.496;2023-06-22T14:26:58;17.05;;;12.68;;
69629;SDS011;56857;52.212;5.496;2023-06-22T14:29:24;16.38;;;10.57;;